This is the latest recevied weather packets stored in our database for station/object KC0AFB. If no packets are shown the sender has not sent any weather packets the latest 10 day(s).
| Time | Temp. | Humidity | Pressure | Rain* | Wind** | Luminosity | Snow |
|---|---|---|---|---|---|---|---|
| 1777532508 | -1.11° C | 69% | 1022 hPa | 0 mm | - | 0 W/m² | - |
| 1777532206 | -1.11° C | 71% | 1021.8 hPa | 0 mm | - | 0 W/m² | - |
| 1777531902 | -1.67° C | 73% | 1021.8 hPa | 0 mm | - | 0 W/m² | - |
| 1777531598 | -2.78° C | 74% | 1022 hPa | 0 mm | - | 0 W/m² | - |
| 1777531295 | -2.22° C | 73% | 1021.9 hPa | 0 mm | - | 0 W/m² | - |
| 1777530993 | -2.22° C | 73% | 1022 hPa | 0 mm | - | 0 W/m² | - |
| 1777530690 | -2.22° C | 72% | 1021.9 hPa | 0 mm | - | 0 W/m² | - |
| 1777530388 | -1.67° C | 71% | 1022 hPa | 0 mm | - | 0 W/m² | - |
| 1777530083 | -1.11° C | 69% | 1022 hPa | 0 mm | - | 0 W/m² | - |
| 1777529781 | -1.11° C | 70% | 1022 hPa | 0 mm | - | 0 W/m² | - |
| 1777529477 | -1.11° C | 69% | 1022 hPa | 0 mm | - | 0 W/m² | - |
| 1777529175 | -1.11° C | 69% | 1021.8 hPa | 0 mm | - | 0 W/m² | - |
| 1777528870 | -0.56° C | 68% | 1021.9 hPa | 0 mm | - | 0 W/m² | - |
| 1777528567 | 0° C | 67% | 1022.3 hPa | 0 mm | - | 0 W/m² | - |
| 1777528264 | 0° C | 66% | 1022.3 hPa | 0 mm | - | 0 W/m² | - |
| 1777527963 | -0.56° C | 67% | 1022 hPa | 0 mm | - | 0 W/m² | - |
| 1777527658 | 0° C | 67% | 1022.2 hPa | 0 mm | - | 0 W/m² | - |
| 1777527353 | -0.56° C | 67% | 1022 hPa | 0 mm | - | 0 W/m² | - |
| 1777527048 | -0.56° C | 68% | 1022.2 hPa | 0 mm | - | 0 W/m² | - |
| 1777526744 | -0.56° C | 67% | 1022 hPa | 0 mm | - | 0 W/m² | - |
| 1777526440 | 0.56° C | 65% | 1022.2 hPa | 0 mm | - | 0 W/m² | - |
| 1777526134 | 0° C | 67% | 1022.2 hPa | 0 mm | - | 0 W/m² | - |
| 1777525831 | -1.67° C | 70% | 1021.9 hPa | 0 mm | - | 0 W/m² | - |
| 1777525530 | -1.11° C | 70% | 1022.3 hPa | 0 mm | - | 0 W/m² | - |
| 1777525226 | -1.11° C | 69% | 1021.8 hPa | 0 mm | - | 0 W/m² | - |
* Rain latest hour (hover to see other rain measurements)
** Current wind speed in m/s (hover to see current wind gust speed)